Time;durP1;ratioP1;P1;durP2;ratioP2;P2;SDS_P1;SDS_P2;PMS_P1;PMS_P2;Temp;Humidity;BMP_temperature;BMP_pressure;BME280_temperature;BME280_humidity;BME280_pressure;Samples;Min_cycle;Max_cycle;Signal;HPM_P1;HPM_P2
2021/10/25 00:01:04;;;;;;;13.53;12.37;;;4.60;99.90;;;;;;5031059;28;20299;-65
2021/10/25 00:03:31;;;;;;;12.87;11.53;;;4.50;99.90;;;;;;5015153;28;20203;-64
2021/10/25 00:05:56;;;;;;;12.90;11.70;;;4.50;99.90;;;;;;5026120;28;20230;-66
2021/10/25 00:08:22;;;;;;;13.67;12.33;;;4.40;99.90;;;;;;5030377;28;20203;-65
2021/10/25 00:10:48;;;;;;;12.17;10.93;;;4.40;99.90;;;;;;5014555;28;20224;-65
2021/10/25 00:13:14;;;;;;;12.57;11.47;;;4.40;99.90;;;;;;5011499;28;20259;-65
2021/10/25 00:15:39;;;;;;;13.17;11.93;;;4.40;99.90;;;;;;5011284;28;20270;-65
2021/10/25 00:18:06;;;;;;;12.53;11.43;;;4.40;99.90;;;;;;5011529;28;20219;-65
2021/10/25 00:20:31;;;;;;;12.67;11.67;;;4.50;99.90;;;;;;5010713;28;20711;-65
2021/10/25 00:22:57;;;;;;;12.80;11.73;;;4.40;99.90;;;;;;5026545;28;20208;-65
2021/10/25 00:25:23;;;;;;;14.00;12.70;;;4.40;99.90;;;;;;5031040;28;20277;-65
2021/10/25 00:27:48;;;;;;;13.63;12.47;;;4.50;99.90;;;;;;5017117;28;20609;-66
2021/10/25 00:30:15;;;;;;;14.20;12.57;;;4.60;99.90;;;;;;5014194;28;20633;-64
2021/10/25 00:32:40;;;;;;;13.63;12.33;;;4.70;99.90;;;;;;5030900;28;20561;-65
2021/10/25 00:35:07;;;;;;;12.90;11.70;;;4.80;99.90;;;;;;5029056;28;20184;-64
2021/10/25 00:37:33;;;;;;;13.40;12.00;;;4.90;99.90;;;;;;5011156;28;20191;-64
2021/10/25 00:39:59;;;;;;;15.03;13.07;;;5.10;99.90;;;;;;4993157;28;20558;-66
2021/10/25 00:42:25;;;;;;;14.33;12.93;;;5.20;99.90;;;;;;5030073;28;20183;-65
2021/10/25 00:44:51;;;;;;;13.87;12.70;;;5.20;99.90;;;;;;5030846;28;20217;-64
2021/10/25 00:47:16;;;;;;;13.57;12.30;;;5.30;99.90;;;;;;5014419;28;20583;-65
2021/10/25 00:49:42;;;;;;;13.53;12.13;;;5.30;99.90;;;;;;5014459;28;20182;-65
2021/10/25 00:52:09;;;;;;;12.77;11.60;;;5.30;99.90;;;;;;5030393;28;20258;-66
2021/10/25 00:54:37;;;;;;;14.30;12.87;;;5.30;99.90;;;;;;5033432;28;20180;-64
2021/10/25 00:57:04;;;;;;;13.10;11.87;;;5.30;99.90;;;;;;5018840;28;20207;-65
2021/10/25 00:59:32;;;;;;;14.13;12.70;;;5.30;99.90;;;;;;5024330;28;20636;-65
2021/10/25 01:01:59;;;;;;;14.40;12.67;;;5.30;99.90;;;;;;5034016;28;20172;-65
2021/10/25 01:04:26;;;;;;;14.57;13.10;;;5.30;99.90;;;;;;5023796;28;20204;-65
2021/10/25 01:06:51;;;;;;;13.87;12.40;;;5.30;99.90;;;;;;5013905;28;20669;-65
2021/10/25 01:09:18;;;;;;;14.17;12.30;;;5.30;99.90;;;;;;5021952;28;20242;-65
2021/10/25 01:11:44;;;;;;;14.13;12.73;;;5.30;99.90;;;;;;5033867;28;20175;-66
2021/10/25 01:14:10;;;;;;;14.43;12.93;;;5.30;99.90;;;;;;5017096;28;20184;-65
2021/10/25 01:16:36;;;;;;;15.00;13.60;;;5.20;99.90;;;;;;5013924;28;20196;-66
2021/10/25 01:19:02;;;;;;;13.63;12.47;;;5.30;99.90;;;;;;5027588;28;20229;-64
2021/10/25 01:21:28;;;;;;;14.63;13.37;;;5.20;99.90;;;;;;5033646;28;20587;-65
2021/10/25 01:23:55;;;;;;;14.03;12.80;;;5.20;99.90;;;;;;5020412;28;20204;-66
2021/10/25 01:26:21;;;;;;;14.13;12.90;;;5.30;99.90;;;;;;5013787;28;20209;-66
2021/10/25 01:28:48;;;;;;;14.87;11.13;;;5.20;99.90;;;;;;5032199;28;20594;-66
2021/10/25 01:31:18;;;;;;;13.00;11.87;;;5.20;99.90;;;;;;5032726;28;20223;-66
2021/10/25 01:33:49;;;;;;;15.60;12.47;;;5.20;99.90;;;;;;5015043;28;20180;-64
2021/10/25 01:36:15;;;;;;;13.70;12.37;;;5.20;99.90;;;;;;5013379;28;20302;-65
2021/10/25 01:38:41;;;;;;;12.83;11.73;;;5.20;99.90;;;;;;5030717;28;20198;-64
2021/10/25 01:41:10;;;;;;;13.90;12.67;;;5.20;99.90;;;;;;5015144;28;20196;-66
2021/10/25 01:43:37;;;;;;;13.57;12.43;;;5.20;99.90;;;;;;5029158;28;20269;-65
2021/10/25 01:46:08;;;;;;;12.90;11.73;;;5.20;99.90;;;;;;5033748;28;20206;-65
2021/10/25 01:48:34;;;;;;;13.57;12.17;;;5.20;99.90;;;;;;5018358;28;20176;-66
2021/10/25 01:50:59;;;;;;;13.50;12.33;;;5.20;99.90;;;;;;5013637;28;20179;-65
2021/10/25 01:53:26;;;;;;;13.57;12.27;;;5.20;99.90;;;;;;5026327;28;20183;-65
2021/10/25 01:55:56;;;;;;;13.93;12.53;;;5.30;99.90;;;;;;5023495;28;20216;-66
2021/10/25 01:58:22;;;;;;;14.47;12.97;;;5.30;99.90;;;;;;5013559;28;20184;-66
2021/10/25 02:00:48;;;;;;;15.00;13.60;;;5.30;99.90;;;;;;5012944;28;20187;-66
2021/10/25 02:03:14;;;;;;;15.13;12.00;;;5.30;99.90;;;;;;5019934;28;20531;-66
2021/10/25 02:05:40;;;;;;;14.13;12.83;;;5.30;99.90;;;;;;5033074;28;20187;-65
2021/10/25 02:08:06;;;;;;;15.27;13.70;;;5.30;99.90;;;;;;5027123;28;20180;-65
2021/10/25 02:10:31;;;;;;;13.63;12.23;;;5.30;99.90;;;;;;5012662;28;20266;-64
2021/10/25 02:12:57;;;;;;;14.00;12.70;;;5.30;99.90;;;;;;5016798;28;20196;-65
2021/10/25 02:15:23;;;;;;;12.93;11.70;;;5.30;99.90;;;;;;5032054;28;20195;-66
2021/10/25 02:17:48;;;;;;;12.77;11.67;;;5.30;99.90;;;;;;5031259;28;20184;-69
2021/10/25 02:20:14;;;;;;;13.90;12.50;;;5.30;99.90;;;;;;5013666;28;20195;-69
2021/10/25 02:22:40;;;;;;;13.87;12.63;;;5.30;99.90;;;;;;5013905;28;20188;-69
2021/10/25 02:25:06;;;;;;;17.20;12.37;;;5.30;99.90;;;;;;5033925;28;20172;-68
2021/10/25 02:27:32;;;;;;;12.90;11.70;;;5.30;99.90;;;;;;5033772;28;20238;-66
2021/10/25 02:29:57;;;;;;;15.30;13.40;;;5.30;99.90;;;;;;5014230;28;20637;-65
2021/10/25 02:32:24;;;;;;;13.40;12.20;;;5.30;99.90;;;;;;5014123;28;20177;-66
2021/10/25 02:34:50;;;;;;;13.80;11.87;;;5.30;99.90;;;;;;5030744;28;20229;-66
2021/10/25 02:37:17;;;;;;;13.57;12.17;;;5.20;99.90;;;;;;5033545;28;20214;-68
2021/10/25 02:39:43;;;;;;;13.40;12.07;;;5.20;99.90;;;;;;5017366;28;20188;-66
2021/10/25 02:42:10;;;;;;;13.40;12.17;;;5.20;99.90;;;;;;5013826;28;20176;-66
2021/10/25 02:44:35;;;;;;;14.70;12.73;;;5.20;99.90;;;;;;5027267;28;20214;-67
2021/10/25 02:47:02;;;;;;;13.43;12.10;;;5.10;99.90;;;;;;5032893;28;20195;-68
2021/10/25 02:49:28;;;;;;;14.57;13.17;;;5.10;99.90;;;;;;5020635;28;20176;-68
2021/10/25 02:51:53;;;;;;;12.90;11.80;;;5.10;99.90;;;;;;5021798;28;20178;-67
2021/10/25 02:54:19;;;;;;;12.83;11.53;;;5.10;99.90;;;;;;5033026;28;20637;-69
2021/10/25 02:56:45;;;;;;;13.10;11.80;;;5.10;99.90;;;;;;5026540;28;20290;-69
2021/10/25 02:59:10;;;;;;;12.57;11.57;;;5.10;99.90;;;;;;5013163;28;20181;-68
2021/10/25 03:01:37;;;;;;;13.10;12.00;;;5.10;99.90;;;;;;5014325;28;20184;-65
2021/10/25 03:04:04;;;;;;;12.47;11.37;;;5.10;99.90;;;;;;5013569;28;20735;-68
2021/10/25 03:06:30;;;;;;;13.10;12.00;;;5.10;99.90;;;;;;5023824;28;20288;-65
2021/10/25 03:08:55;;;;;;;13.40;12.20;;;5.10;99.90;;;;;;5032474;28;20604;-68
2021/10/25 03:11:21;;;;;;;12.17;11.10;;;5.10;99.90;;;;;;5004331;28;20180;-65
2021/10/25 03:13:47;;;;;;;13.17;11.87;;;5.10;99.90;;;;;;5012921;28;20614;-67
2021/10/25 03:16:13;;;;;;;13.17;11.93;;;5.00;99.90;;;;;;5026685;28;20218;-69
2021/10/25 03:18:38;;;;;;;12.20;11.20;;;5.00;99.90;;;;;;5032394;28;20174;-69
2021/10/25 03:21:04;;;;;;;12.70;11.57;;;5.00;99.90;;;;;;5028966;28;20187;-69
2021/10/25 03:23:31;;;;;;;12.73;11.53;;;4.90;99.90;;;;;;5032701;28;20270;-66
2021/10/25 03:25:57;;;;;;;13.67;12.40;;;4.90;99.90;;;;;;5000857;28;20278;-66
2021/10/25 03:28:22;;;;;;;12.80;11.60;;;4.90;99.90;;;;;;5012958;28;20255;-65
2021/10/25 03:30:49;;;;;;;13.30;12.20;;;4.80;99.90;;;;;;5017345;28;20548;-67
2021/10/25 03:33:15;;;;;;;13.43;12.33;;;4.90;99.90;;;;;;5029711;28;20667;-66
2021/10/25 03:35:41;;;;;;;13.27;12.07;;;4.80;99.90;;;;;;5021058;28;20306;-68
2021/10/25 03:38:09;;;;;;;12.87;11.77;;;4.80;99.90;;;;;;5012937;28;20753;-69
2021/10/25 03:40:34;;;;;;;15.40;14.23;;;4.80;99.90;;;;;;5018194;28;20180;-68
2021/10/25 03:43:00;;;;;;;13.90;12.90;;;4.80;99.90;;;;;;5019684;28;20196;-68
2021/10/25 03:45:32;;;;;;;14.50;13.33;;;4.70;99.90;;;;;;5011696;28;20673;-70
2021/10/25 03:50:32;;;;;;;12.70;11.60;;;4.70;99.90;;;;;;5030623;28;20167;-64
2021/10/25 03:53:06;;;;;;;13.60;12.40;;;4.70;99.90;;;;;;5024360;28;20180;-64
2021/10/25 03:58:36;;;;;;;13.97;12.77;;;4.60;99.90;;;;;;5020179;28;20190;-64
2021/10/25 04:01:24;;;;;;;12.97;11.67;;;4.60;99.90;;;;;;5030765;28;20202;-65
2021/10/25 04:30:27;;;;;;;11.87;10.97;;;4.40;99.90;;;;;;5034347;28;20172;-64
2021/10/25 04:32:53;;;;;;;12.20;11.13;;;4.50;99.90;;;;;;5023746;28;20668;-64
2021/10/25 04:35:18;;;;;;;12.03;11.13;;;4.50;99.90;;;;;;5034511;28;20164;-64
2021/10/25 04:37:44;;;;;;;12.80;11.70;;;4.50;99.90;;;;;;5016288;28;20203;-64
2021/10/25 04:40:10;;;;;;;12.60;11.43;;;4.50;99.90;;;;;;5013963;28;20176;-64
2021/10/25 04:42:36;;;;;;;12.77;11.63;;;4.50;99.90;;;;;;5029789;28;20183;-64
2021/10/25 04:45:02;;;;;;;13.33;12.03;;;4.50;99.90;;;;;;5022732;28;20204;-64
2021/10/25 04:47:28;;;;;;;12.40;11.40;;;4.50;99.90;;;;;;5014317;28;20619;-64
2021/10/25 04:49:54;;;;;;;12.57;11.47;;;4.50;99.90;;;;;;5023992;28;20175;-64
2021/10/25 04:52:19;;;;;;;12.53;11.47;;;4.50;99.90;;;;;;5034174;28;20171;-64
2021/10/25 04:54:45;;;;;;;12.17;10.97;;;4.50;99.90;;;;;;5025890;28;20657;-64
2021/10/25 04:57:11;;;;;;;12.60;11.50;;;4.50;99.90;;;;;;5014353;28;20210;-64
2021/10/25 04:59:37;;;;;;;13.83;12.43;;;4.50;99.90;;;;;;5018305;28;20657;-64
2021/10/25 05:02:03;;;;;;;12.27;11.37;;;4.50;99.90;;;;;;5033812;28;20176;-64
2021/10/25 05:04:30;;;;;;;13.57;12.27;;;4.50;99.90;;;;;;5028825;28;20196;-64
2021/10/25 05:06:56;;;;;;;14.00;12.50;;;4.40;99.90;;;;;;5013918;28;20561;-64
2021/10/25 05:09:21;;;;;;;13.20;11.90;;;4.40;99.90;;;;;;5017723;28;20195;-64
2021/10/25 05:11:48;;;;;;;12.17;11.20;;;4.40;99.90;;;;;;5014348;28;20634;-64
2021/10/25 05:14:13;;;;;;;13.63;12.47;;;4.40;99.90;;;;;;5032804;28;20556;-64
2021/10/25 05:16:39;;;;;;;13.03;12.03;;;4.40;99.90;;;;;;5033922;28;20645;-64
2021/10/25 05:19:05;;;;;;;12.13;11.13;;;4.30;99.90;;;;;;5016162;28;20176;-64
2021/10/25 05:21:31;;;;;;;13.03;12.07;;;4.30;99.90;;;;;;5013928;28;20223;-64
2021/10/25 05:23:56;;;;;;;12.80;10.87;;;4.30;99.90;;;;;;5029524;28;20839;-64
2021/10/25 05:26:22;;;;;;;12.43;11.50;;;4.30;99.90;;;;;;5033540;28;20262;-64
2021/10/25 05:28:48;;;;;;;11.83;10.77;;;4.30;99.90;;;;;;5019566;28;20184;-64
2021/10/25 05:31:14;;;;;;;11.90;11.17;;;4.30;99.90;;;;;;5013342;28;20540;-64
2021/10/25 05:33:41;;;;;;;13.80;12.70;;;4.30;99.90;;;;;;5025488;28;20188;-64
2021/10/25 05:36:08;;;;;;;12.57;11.47;;;4.20;99.90;;;;;;5033315;28;20590;-64
2021/10/25 05:38:34;;;;;;;12.10;11.17;;;4.20;99.90;;;;;;5022049;28;20180;-64
2021/10/25 05:41:01;;;;;;;12.03;11.13;;;4.20;99.90;;;;;;5019676;28;20237;-64
2021/10/25 05:43:26;;;;;;;12.20;11.20;;;4.20;99.90;;;;;;5033008;28;20195;-64
2021/10/25 05:45:53;;;;;;;11.33;10.37;;;4.20;99.90;;;;;;5027676;28;20735;-64
2021/10/25 05:48:19;;;;;;;10.77;9.87;;;4.20;99.90;;;;;;5013161;28;20262;-64
2021/10/25 05:50:45;;;;;;;11.20;10.13;;;4.20;99.90;;;;;;5016340;28;20218;-64
2021/10/25 05:53:11;;;;;;;12.30;11.33;;;4.10;99.90;;;;;;5033332;28;20179;-64
2021/10/25 05:55:39;;;;;;;12.50;11.30;;;4.10;99.90;;;;;;5030480;28;20205;-64
2021/10/25 05:58:05;;;;;;;12.47;11.27;;;4.10;99.90;;;;;;5013383;28;20176;-64
2021/10/25 06:00:37;;;;;;;11.20;10.37;;;4.10;99.90;;;;;;5013300;28;20188;-64
2021/10/25 06:03:03;;;;;;;11.10;10.40;;;4.10;99.90;;;;;;5027768;28;20175;-64
2021/10/25 06:05:30;;;;;;;12.63;11.33;;;4.00;99.90;;;;;;5024880;28;20561;-64
2021/10/25 06:07:57;;;;;;;11.50;10.27;;;4.00;99.90;;;;;;5004976;28;20180;-64
2021/10/25 06:10:27;;;;;;;12.03;10.97;;;4.00;99.90;;;;;;5012797;28;20196;-64
2021/10/25 06:12:55;;;;;;;12.50;11.00;;;4.00;99.90;;;;;;4993663;28;20239;-64
2021/10/25 06:15:25;;;;;;;12.73;11.63;;;4.00;99.90;;;;;;5009530;28;20196;-64
2021/10/25 06:20:17;;;;;;;11.63;10.77;;;4.00;99.90;;;;;;5017116;28;20180;-64
2021/10/25 06:22:43;;;;;;;11.77;10.80;;;4.00;99.90;;;;;;5017647;28;20188;-64
2021/10/25 06:25:13;;;;;;;11.70;10.70;;;4.00;99.90;;;;;;5019845;28;20250;-64
2021/10/25 06:27:39;;;;;;;11.07;10.10;;;4.00;99.90;;;;;;5032690;28;20203;-64
2021/10/25 06:30:06;;;;;;;11.77;10.87;;;4.10;99.90;;;;;;5016112;28;20700;-64
2021/10/25 06:32:32;;;;;;;12.97;11.83;;;4.20;99.90;;;;;;5018057;28;20483;-64
2021/10/25 06:35:00;;;;;;;13.17;11.33;;;4.20;99.90;;;;;;5025658;28;20184;-64
2021/10/25 06:37:32;;;;;;;12.67;11.47;;;4.30;99.90;;;;;;5014307;28;20242;-64
2021/10/25 06:40:03;;;;;;;12.43;11.37;;;4.30;99.90;;;;;;5013561;28;20680;-64
2021/10/25 06:42:28;;;;;;;12.57;11.47;;;4.40;99.90;;;;;;5013098;28;20234;-64
2021/10/25 06:44:59;;;;;;;12.10;11.00;;;4.40;99.90;;;;;;5013387;28;20278;-64
2021/10/25 06:47:25;;;;;;;11.00;10.20;;;4.50;99.90;;;;;;5031903;28;20661;-65
2021/10/25 06:49:51;;;;;;;12.83;11.33;;;4.40;99.90;;;;;;5026930;28;20179;-64
2021/10/25 06:52:17;;;;;;;12.50;11.50;;;4.50;99.90;;;;;;5031844;28;20171;-64
2021/10/25 06:54:42;;;;;;;15.23;11.83;;;4.50;99.90;;;;;;5028012;28;20186;-63
2021/10/25 06:57:08;;;;;;;11.70;10.63;;;4.50;99.90;;;;;;5028688;28;20214;-64
2021/10/25 06:59:34;;;;;;;11.70;10.80;;;4.60;99.90;;;;;;5023846;28;20179;-63
2021/10/25 07:01:59;;;;;;;12.13;11.23;;;4.60;99.90;;;;;;5029437;28;20745;-63
2021/10/25 07:04:25;;;;;;;12.23;11.20;;;4.70;99.90;;;;;;4995047;28;20207;-63
2021/10/25 07:06:52;;;;;;;11.77;10.83;;;4.70;99.90;;;;;;5013384;28;20634;-63
2021/10/25 07:09:19;;;;;;;13.40;12.03;;;4.80;99.90;;;;;;5024339;28;20186;-63
2021/10/25 07:11:45;;;;;;;13.00;11.87;;;4.80;99.90;;;;;;5029493;28;20220;-65
2021/10/25 07:14:11;;;;;;;13.27;12.10;;;4.80;99.90;;;;;;5017014;28;20259;-65
2021/10/25 07:16:42;;;;;;;11.80;10.80;;;5.10;99.90;;;;;;5031179;28;20682;-63
2021/10/25 07:22:14;;;;;;;15.43;11.80;;;5.70;99.90;;;;;;5014047;28;20721;-63
2021/10/25 08:10:35;;;;;;;9.40;8.70;;;9.60;99.90;;;;;;5015036;28;20184;-65
2021/10/25 08:13:03;;;;;;;9.37;8.30;;;9.70;99.90;;;;;;5016275;28;20634;-65
2021/10/25 08:15:36;;;;;;;8.83;8.13;;;9.80;99.90;;;;;;5014970;28;20188;-65
2021/10/25 08:18:05;;;;;;;9.73;8.83;;;10.00;99.90;;;;;;5033895;28;20241;-65
2021/10/25 08:20:31;;;;;;;7.87;7.37;;;10.30;99.90;;;;;;5032516;28;20178;-66
2021/10/25 08:22:57;;;;;;;8.93;8.20;;;10.70;99.90;;;;;;5003967;28;20556;-65
2021/10/25 08:25:22;;;;;;;8.80;8.13;;;11.00;99.90;;;;;;5024577;28;20199;-64
2021/10/25 08:27:48;;;;;;;8.67;8.07;;;11.30;99.90;;;;;;5034642;28;20251;-63
2021/10/25 08:30:18;;;;;;;8.43;7.83;;;11.30;99.90;;;;;;5031066;28;20172;-65
2021/10/25 08:32:59;;;;;;;7.97;7.30;;;11.40;99.90;;;;;;5034189;28;20172;-63
2021/10/25 08:35:49;;;;;;;8.43;7.70;;;11.70;99.90;;;;;;5025966;28;20561;-65
2021/10/25 08:41:00;;;;;;;8.13;7.47;;;12.70;99.90;;;;;;5024329;28;20399;-65
2021/10/25 08:43:26;;;;;;;8.23;7.53;;;13.10;99.90;;;;;;5032866;28;20195;-66
2021/10/25 08:45:55;;;;;;;7.63;7.03;;;13.30;99.90;;;;;;5024719;28;20665;-66
2021/10/25 08:48:22;;;;;;;7.43;6.93;;;13.60;99.90;;;;;;5026191;28;20202;-63
2021/10/25 08:50:48;;;;;;;7.47;6.83;;;13.70;99.90;;;;;;5029315;28;20193;-63
2021/10/25 08:53:14;;;;;;;8.20;7.60;;;13.80;99.90;;;;;;5034247;28;20178;-66
2021/10/25 08:55:40;;;;;;;9.20;8.10;;;14.00;99.90;;;;;;5022480;28;20212;-66
2021/10/25 08:58:07;;;;;;;7.90;7.20;;;14.00;99.90;;;;;;5022013;28;20212;-65
2021/10/25 09:00:42;;;;;;;6.90;6.40;;;14.10;99.90;;;;;;5014491;28;20180;-66
2021/10/25 09:03:08;;;;;;;7.30;6.73;;;14.20;99.90;;;;;;5013251;28;20268;-65
2021/10/25 09:05:35;;;;;;;7.13;6.63;;;14.40;99.90;;;;;;5018753;28;20227;-65
2021/10/25 09:08:04;;;;;;;8.07;6.67;;;14.50;99.90;;;;;;5018194;28;20183;-65
2021/10/25 09:10:31;;;;;;;6.97;6.47;;;14.50;99.90;;;;;;5029860;28;20180;-65
2021/10/25 09:13:09;;;;;;;6.93;6.33;;;14.60;99.90;;;;;;5014203;28;20539;-65
2021/10/25 09:15:40;;;;;;;6.83;6.33;;;14.70;99.90;;;;;;5017163;28;20204;-66
2021/10/25 09:18:07;;;;;;;7.17;6.63;;;15.00;99.90;;;;;;5014663;28;20175;-65
2021/10/25 09:20:46;;;;;;;6.80;6.30;;;15.20;99.90;;;;;;5025201;28;20243;-65
2021/10/25 09:23:13;;;;;;;7.00;6.50;;;15.40;99.90;;;;;;5014532;28;20534;-65
2021/10/25 09:25:40;;;;;;;7.63;6.90;;;15.40;99.90;;;;;;5023565;28;20204;-65
2021/10/25 09:28:19;;;;;;;6.70;6.13;;;15.30;99.90;;;;;;5021282;28;20184;-65
2021/10/25 09:30:51;;;;;;;6.63;6.03;;;15.30;99.90;;;;;;5031522;28;20638;-65
2021/10/25 09:33:21;;;;;;;7.10;6.40;;;15.40;99.90;;;;;;5024906;28;20172;-65
2021/10/25 09:35:53;;;;;;;7.33;6.63;;;15.50;99.90;;;;;;5028531;28;20219;-65
2021/10/25 09:49:59;;;;;;;6.20;5.67;;;17.80;99.90;;;;;;4993424;28;20239;-66
2021/10/25 09:52:37;;;;;;;6.37;5.97;;;18.40;99.90;;;;;;5012791;28;20531;-66
2021/10/25 09:55:18;;;;;;;6.13;5.73;;;18.70;99.90;;;;;;5023599;28;20180;-64
2021/10/25 10:00:17;;;;;;;5.97;5.57;;;18.80;99.90;;;;;;5030794;28;20179;-66
2021/10/25 10:02:44;;;;;;;6.57;6.13;;;18.90;99.90;;;;;;5026242;28;20184;-66
2021/10/25 10:05:12;;;;;;;6.60;6.10;;;19.10;99.90;;;;;;5022366;28;20227;-65
2021/10/25 10:07:39;;;;;;;6.47;5.97;;;19.30;99.90;;;;;;5008080;28;20656;-66
2021/10/25 10:10:06;;;;;;;6.37;5.87;;;19.70;99.90;;;;;;5013569;28;20191;-65
2021/10/25 10:12:35;;;;;;;6.03;5.50;;;19.80;99.90;;;;;;5012781;28;20737;-65
2021/10/25 10:15:03;;;;;;;6.53;5.93;;;19.80;99.90;;;;;;5025307;28;20290;-63
2021/10/25 10:17:48;;;;;;;6.83;6.23;;;19.80;99.90;;;;;;5032584;28;20267;-66
2021/10/25 10:20:28;;;;;;;6.93;6.40;;;20.10;99.90;;;;;;5030440;28;20306;-66
2021/10/25 10:22:58;;;;;;;7.70;5.90;;;20.00;99.90;;;;;;5016958;28;20199;-66
2021/10/25 10:25:27;;;;;;;6.90;6.30;;;19.60;99.90;;;;;;5022142;28;20202;-65
2021/10/25 10:28:07;;;;;;;6.73;6.30;;;19.40;99.90;;;;;;5032273;28;20672;-65
2021/10/25 10:30:51;;;;;;;6.43;6.03;;;19.10;99.90;;;;;;5030044;28;20280;-66
2021/10/25 10:33:28;;;;;;;6.80;6.20;;;19.30;99.90;;;;;;5020573;28;20188;-66
2021/10/25 10:35:54;;;;;;;7.00;6.40;;;19.50;99.90;;;;;;5012871;28;20636;-66
2021/10/25 10:38:29;;;;;;;7.30;6.80;;;19.80;99.90;;;;;;5023405;28;20215;-66
2021/10/25 10:40:54;;;;;;;6.40;5.90;;;20.30;99.90;;;;;;5018619;28;20183;-65
2021/10/25 10:43:26;;;;;;;6.40;5.82;;;20.70;99.90;;;;;;5020122;28;20744;-63
2021/10/25 10:46:11;;;;;;;5.68;5.28;;;21.10;99.90;;;;;;5012562;28;20192;-66
2021/10/25 10:48:39;;;;;;;6.37;5.87;;;21.10;99.90;;;;;;5020486;28;20180;-66
2021/10/25 10:51:10;;;;;;;6.27;5.77;;;20.90;99.90;;;;;;5025839;28;20655;-65
2021/10/25 10:53:44;;;;;;;6.27;5.80;;;20.40;99.90;;;;;;5031532;28;20179;-65
2021/10/25 10:56:22;;;;;;;5.80;5.40;;;20.30;99.90;;;;;;5015504;28;20673;-66
2021/10/25 10:59:05;;;;;;;5.87;5.47;;;20.30;99.90;;;;;;5017341;28;20510;-66
2021/10/25 11:01:32;;;;;;;5.57;5.23;;;20.40;99.90;;;;;;5017255;28;20188;-65
2021/10/25 11:03:59;;;;;;;5.93;5.47;;;20.40;99.90;;;;;;5017729;28;20241;-66
2021/10/25 11:06:35;;;;;;;5.70;5.30;;;20.50;99.90;;;;;;5031597;28;20195;-65
2021/10/25 11:09:09;;;;;;;6.03;5.63;;;20.70;99.90;;;;;;5023557;28;20639;-66
2021/10/25 11:11:37;;;;;;;6.10;5.60;;;20.50;99.90;;;;;;5026285;28;20684;-66
2021/10/25 11:14:06;;;;;;;6.17;5.67;;;20.30;99.90;;;;;;5011839;28;20199;-65
2021/10/25 11:16:42;;;;;;;6.93;6.23;;;20.20;99.90;;;;;;5011531;28;20204;-66
2021/10/25 11:19:09;;;;;;;6.23;5.87;;;20.30;99.90;;;;;;5008830;28;20179;-66
2021/10/25 11:21:52;;;;;;;5.80;5.40;;;20.50;99.90;;;;;;5024111;28;20609;-65
2021/10/25 11:24:19;;;;;;;5.87;5.37;;;20.70;99.90;;;;;;5012401;28;20688;-65
2021/10/25 11:26:46;;;;;;;5.50;5.20;;;20.60;99.90;;;;;;5031131;28;20213;-65
2021/10/25 11:29:21;;;;;;;6.17;5.63;;;20.50;99.90;;;;;;5014077;28;20270;-66
2021/10/25 11:31:52;;;;;;;5.43;5.13;;;21.00;99.90;;;;;;5011143;28;20171;-65
2021/10/25 11:34:30;;;;;;;5.40;5.10;;;21.30;99.90;;;;;;5016673;28;20652;-65
2021/10/25 11:37:02;;;;;;;5.40;4.93;;;21.30;99.90;;;;;;5011432;28;20219;-65
2021/10/25 11:39:37;;;;;;;5.63;5.33;;;21.30;99.90;;;;;;5028499;28;20186;-65
2021/10/25 11:42:07;;;;;;;5.10;4.80;;;21.20;99.90;;;;;;5031071;28;20214;-65
2021/10/25 11:44:33;;;;;;;5.87;5.57;;;20.90;99.90;;;;;;5014487;28;20665;-65
2021/10/25 11:46:58;;;;;;;5.97;5.60;;;20.80;99.90;;;;;;5022481;28;20238;-65
2021/10/25 11:49:25;;;;;;;6.60;6.20;;;20.70;99.90;;;;;;5010975;28;20164;-65
2021/10/25 11:51:52;;;;;;;5.57;5.17;;;20.50;99.90;;;;;;5019372;28;20175;-66
2021/10/25 11:54:18;;;;;;;6.87;6.37;;;20.40;99.90;;;;;;5031081;28;20179;-65
2021/10/25 11:56:53;;;;;;;6.50;6.00;;;20.20;99.90;;;;;;5024181;28;20196;-65
2021/10/25 11:59:20;;;;;;;6.53;5.83;;;20.20;99.90;;;;;;5011968;28;20182;-65
2021/10/25 12:01:48;;;;;;;6.10;5.70;;;19.90;99.90;;;;;;5017154;28;20184;-65
2021/10/25 12:04:14;;;;;;;5.73;5.20;;;19.50;99.90;;;;;;5016205;28;20200;-64
2021/10/25 12:06:40;;;;;;;5.60;5.20;;;19.30;99.90;;;;;;5010798;28;20207;-65
2021/10/25 12:09:09;;;;;;;6.17;5.67;;;19.50;99.90;;;;;;5019945;28;20175;-66
2021/10/25 12:14:11;;;;;;;5.20;4.80;;;19.70;99.90;;;;;;5015639;28;20184;-65
2021/10/25 12:16:44;;;;;;;6.60;6.10;;;19.70;99.90;;;;;;5012147;28;20671;-65
2021/10/25 12:19:09;;;;;;;6.17;5.77;;;20.00;99.90;;;;;;5011071;28;20323;-64
2021/10/25 12:21:35;;;;;;;5.77;5.47;;;19.80;99.90;;;;;;5017349;28;20662;-64
2021/10/25 12:24:08;;;;;;;6.10;5.60;;;19.70;99.90;;;;;;5031042;28;20203;-64
2021/10/25 12:26:33;;;;;;;5.80;5.30;;;19.60;99.90;;;;;;5011526;28;20207;-65
2021/10/25 12:28:59;;;;;;;6.27;5.77;;;19.80;99.90;;;;;;5010900;28;20519;-65
2021/10/25 12:31:27;;;;;;;5.90;5.60;;;19.80;99.90;;;;;;5022581;28;20172;-65
2021/10/25 12:34:04;;;;;;;6.70;6.10;;;19.60;99.90;;;;;;5017324;28;20269;-65
2021/10/25 12:36:37;;;;;;;5.90;5.50;;;19.50;99.90;;;;;;5030109;28;20761;-65
2021/10/25 12:39:14;;;;;;;6.27;5.77;;;19.50;99.90;;;;;;5023309;28;20180;-65
2021/10/25 12:41:56;;;;;;;7.07;6.50;;;19.50;99.90;;;;;;4991207;28;20177;-66
2021/10/25 12:44:27;;;;;;;6.40;5.80;;;19.70;99.90;;;;;;5013053;28;20196;-64
2021/10/25 12:47:20;;;;;;;6.73;6.23;;;19.80;99.90;;;;;;5031168;28;20206;-65
2021/10/25 12:49:48;;;;;;;6.30;5.90;;;19.80;99.90;;;;;;5031901;28;20203;-66
2021/10/25 12:52:15;;;;;;;6.57;6.07;;;19.80;99.90;;;;;;5033509;28;20179;-64
2021/10/25 12:54:42;;;;;;;6.40;5.90;;;19.70;99.90;;;;;;5022052;28;20179;-66
2021/10/25 12:57:25;;;;;;;6.10;5.70;;;19.80;99.90;;;;;;5018037;28;20615;-64
2021/10/25 13:00:10;;;;;;;6.20;5.60;;;19.70;99.90;;;;;;5027751;28;20172;-65
2021/10/25 13:02:45;;;;;;;7.60;6.83;;;19.60;99.90;;;;;;5032369;28;20180;-65
2021/10/25 13:05:18;;;;;;;6.50;6.10;;;19.60;99.90;;;;;;5018491;28;20734;-65
2021/10/25 13:07:58;;;;;;;5.73;5.30;;;19.70;99.90;;;;;;5033976;28;20229;-64
2021/10/25 13:10:30;;;;;;;5.50;5.10;;;19.50;99.90;;;;;;5022394;28;20647;-65
2021/10/25 13:12:58;;;;;;;5.30;4.80;;;19.20;99.90;;;;;;5014029;28;20183;-65
2021/10/25 13:15:25;;;;;;;5.20;4.90;;;18.90;99.90;;;;;;5012163;28;20286;-65
2021/10/25 13:17:51;;;;;;;4.90;4.60;;;18.80;99.90;;;;;;5015225;28;20227;-65
2021/10/25 13:20:21;;;;;;;4.60;4.30;;;18.70;99.90;;;;;;5013892;28;20164;-65
2021/10/25 13:22:49;;;;;;;5.60;5.20;;;18.50;99.90;;;;;;5017235;28;20171;-65
2021/10/25 13:25:15;;;;;;;5.03;4.73;;;18.50;99.90;;;;;;5033292;28;20203;-64
2021/10/25 13:27:42;;;;;;;5.20;4.80;;;18.40;99.90;;;;;;5031890;28;20180;-64
2021/10/25 13:30:08;;;;;;;5.27;4.97;;;18.30;99.90;;;;;;5033228;28;20170;-65
2021/10/25 13:32:34;;;;;;;5.30;5.00;;;18.20;99.90;;;;;;5030469;28;20168;-65
2021/10/25 13:35:00;;;;;;;6.00;5.53;;;18.30;99.90;;;;;;5028646;28;20179;-66
2021/10/25 13:37:26;;;;;;;5.37;5.10;;;18.20;99.90;;;;;;5032296;28;20195;-65
2021/10/25 13:39:51;;;;;;;5.77;5.30;;;18.10;99.90;;;;;;5018653;28;20176;-65
2021/10/25 13:42:18;;;;;;;5.77;5.37;;;17.90;99.90;;;;;;5033357;28;20326;-65
2021/10/25 13:44:44;;;;;;;5.90;5.50;;;17.70;99.90;;;;;;5014018;28;20199;-65
2021/10/25 13:47:10;;;;;;;6.00;5.60;;;17.60;99.90;;;;;;5014100;28;20199;-64
2021/10/25 13:49:35;;;;;;;5.20;4.90;;;17.50;99.90;;;;;;5026197;28;20625;-65
2021/10/25 13:52:01;;;;;;;5.77;5.37;;;17.50;99.90;;;;;;5032662;28;20537;-66
2021/10/25 13:54:27;;;;;;;5.77;5.10;;;17.50;99.90;;;;;;5014882;28;20195;-65
2021/10/25 13:56:54;;;;;;;6.03;5.63;;;17.30;99.90;;;;;;5021527;28;20199;-65
2021/10/25 13:59:20;;;;;;;7.67;6.97;;;17.30;99.90;;;;;;5021531;28;20258;-65
2021/10/25 14:01:45;;;;;;;7.73;7.00;;;17.40;99.90;;;;;;5030773;28;20278;-65
2021/10/25 14:04:16;;;;;;;24.47;14.87;;;17.50;99.90;;;;;;5025297;28;20734;-65
2021/10/25 14:06:41;;;;;;;8.20;7.53;;;17.50;99.90;;;;;;5012778;28;20207;-65
2021/10/25 14:09:07;;;;;;;7.50;6.80;;;17.50;99.90;;;;;;5017274;28;20176;-66
2021/10/25 14:11:40;;;;;;;7.93;7.23;;;17.70;99.90;;;;;;5012824;28;20608;-65
2021/10/25 14:14:10;;;;;;;6.53;5.83;;;17.80;99.90;;;;;;5026909;28;20184;-64
2021/10/25 14:16:40;;;;;;;8.20;7.60;;;17.90;99.90;;;;;;5000319;28;20332;-65
2021/10/25 14:19:06;;;;;;;8.87;8.17;;;17.90;99.90;;;;;;5012614;28;20638;-65
2021/10/25 14:21:34;;;;;;;6.67;6.17;;;17.90;99.90;;;;;;5021423;28;20198;-64
2021/10/25 14:24:01;;;;;;;6.03;5.63;;;17.80;99.90;;;;;;5030712;28;20234;-66
2021/10/25 14:26:27;;;;;;;6.13;5.37;;;17.70;99.90;;;;;;5030629;28;20259;-65
2021/10/25 14:28:53;;;;;;;6.03;5.63;;;17.70;99.90;;;;;;5020287;28;20547;-64